Riverside Municipal Airport
KRAL : now visible

Airfield :











YOU CAN JOIN US ON...

 
LOGIN :

Register | Disclaimer

   EN    FR    IT 

 









Legend :    VFR   Marginal VFR   IFR   Intensive IFR   Very Intensive IFR
Visi :
Ceiling :
>= 8 km
>= 3000ft
5 to 8 km
1000 to 3000 ft
1500m to 5 km
500 to 1000 ft
800 to 1500m
200 to 500 ft
< 800m
< 200 ft
Symbols :   Thunderstorms  Fog  Heavy snow  Heavy precipitations  Wind > 20 kt






- Airport Elevation : 819 ft


KRAL - Riverside Municipal

CURRENT METAR :
  • 150653Z AUTO 00000KT 10SM FEW042 11/09 A2993 RMK AO2 SLP124 T01110089

EXPIRED METARs :
  • 150553Z AUTO 00000KT 10SM SCT019 BKN041 12/09 A2992 RMK AO2 SLP122 T01220094 10156 20122 53007
  • 150526Z AUTO 00000KT 10SM BKN019 OVC060 12/09 A2992 RMK AO2 T01220094
  • 150453Z AUTO 27006KT 10SM FEW017 BKN045 12/10 A2991 RMK AO2 SLP119 T01220100

TAF N/A



MET'MAP, your aeronautical weather chart ! - Copyright ORBIFLY December 2007 - Disclaimer

ORBIFLY MET'MAP TEAM :

Programming & Development : Alexandra Zaïnal
Concept & original design : Baudouin d'Aumeries
Assistance for programming : Marc-Olivier Méhu
Technical & hardware support : Manuel Goepfert

Contact : metmap@orbifly.com




SOURCES & CREDITS :

   NOAA       Earth
Advisory